Yoder, WY

12:15 PM MDT on July 06, 2015 (GMT -0600)
Cherry Creek | | Change Station
CLOSE
Current Station
Personal Weather Station
Location: Veteran, WY
Elevation: 4249 ft
Nearby Weather Stations

Elev 4249 ft 41.99 °N, 104.40 °W | Updated 5 minutes ago

Overcast
Overcast
59.5 °F
Feels Like 59.5 °F
N
3.0
Wind Variable Wind from NE
Gusts 3.0 mph

Today
High -- | Low -- °F
--% Chance of Precip.
Yesterday
High -- | Low -- °F
Precip. -- in
5:28 AM 8:35 PM
Waning Gibbous, 73% visible
Pressure 30.18 in
Visibility 3.0 miles
Clouds Few 2500 ft
Mostly Cloudy 3700 ft
Overcast 4400 ft
Dew Point 54 °F
Humidity 83%
Rainfall 0.09 in
Snow Depth Not available.
UV 3 out of 12
Pollen 2.10 out of 12
Air Quality Not available.
Flu Activity Not available.
METAR KTOR 061753Z AUTO 01007KT 3SM HZ FEW025 BKN037 OVC044 17/11 A3028 RMK AO2 SLP220 60001 T01670106 10167 20139 51011

More Conditions Fewer Conditions

Pressure 30.18 in
Visibility 3.0 miles
Clouds Few 2500 ft
Mostly Cloudy 3700 ft
Overcast 4400 ft
Dew Point 54 °F
Humidity 83%
Rainfall 0.09 in
Snow Depth Not available.
UV 3 out of 12
Pollen 2.10 out of 12
Air Quality Not available.
Flu Activity Not available.
METAR KTOR 061753Z AUTO 01007KT 3SM HZ FEW025 BKN037 OVC044 17/11 A3028 RMK AO2 SLP220 60001 T01670106 10167 20139 51011

More Conditions Fewer Conditions

10-Day Weather Forecast

×

Almanac

Astronomy

Jul. 06, 2015 Rise Set
Actual Time
Civil Twilight
Nautical Twilight
Astronomical Twilight
Moon
Length of Visible Light
Length of Day
Tomorrow will be .
, % of the Moon is Illuminated

Today's Extremes

State Highs State Lows

Community

WunderPhotos

Upload Photos

1,835,610 photos uploaded!

WunderBlogs® & News

Nearby

Air Quality

  Air Quality AQ Index Pollutant
Not available.

Snow Depth

Station Depth Elevation

Earthquake Activity

City Distance Mag. Time & Date
Minimum magnitude displayed is 2.5.

Coastal Water Temperatures

Place Temperature

Stations

Nearby Weather Stations

Station Location Temp. Windchill Dew Point Humidity Wind Precip. Elev Updated Type